Wylliesburg, Virginia
Current Conditions -  °F | °C
As of 10:35 AM on Friday 24 Oct 2014 (Local Time) from KCXE Reporting Station
Clear Clear  
Wind Chill: 59°   Ceiling: Unl
Heat Index: 59°   Visibility: 10mi
Dew Point: 46°   Wind: 6mph
Humidity: 62%   Direction: 300°WNW
Pressure: 30.04"   Gusts: NA
Location:  36.86°N, 78.59°W
Report Text: KCXE 241435Z AUTO 30005KT 10SM CLR 15/08 A3004 RMK AO1 T01520079
Loading
Personal Weather Stations






























Interactive Weather Map
Tropical Storm Tracking
New forecast layout! Learn more

10-Day Weather Forecast

Advertisements
Track Severe Weather on mobile